sensor_id;sensor_type;location;lat;lon;timestamp;pressure;altitude;pressure_sealevel;temperature;humidity
55424;BME280;41294;42.666;23.350;2022-07-22T00:01:01;95069.31;;;22.06;71.01
55424;BME280;41294;42.666;23.350;2022-07-22T00:03:26;95073.94;;;21.87;71.80
55424;BME280;41294;42.666;23.350;2022-07-22T00:05:52;95070.53;;;21.87;72.46
55424;BME280;41294;42.666;23.350;2022-07-22T00:08:17;95071.19;;;21.93;72.24
55424;BME280;41294;42.666;23.350;2022-07-22T00:10:43;95073.06;;;21.79;72.79
55424;BME280;41294;42.666;23.350;2022-07-22T00:13:08;95070.41;;;21.79;73.43
55424;BME280;41294;42.666;23.350;2022-07-22T00:15:34;95071.03;;;21.67;73.46
55424;BME280;41294;42.666;23.350;2022-07-22T00:17:59;95080.16;;;21.77;73.63
55424;BME280;41294;42.666;23.350;2022-07-22T00:20:25;95074.31;;;21.54;74.45
55424;BME280;41294;42.666;23.350;2022-07-22T00:22:50;95078.84;;;21.65;73.89
55424;BME280;41294;42.666;23.350;2022-07-22T00:25:16;95081.75;;;21.67;74.42
55424;BME280;41294;42.666;23.350;2022-07-22T00:27:42;95086.38;;;21.66;74.59
55424;BME280;41294;42.666;23.350;2022-07-22T00:30:08;95088.34;;;21.66;74.70
55424;BME280;41294;42.666;23.350;2022-07-22T00:32:34;95076.25;;;21.54;75.47
55424;BME280;41294;42.666;23.350;2022-07-22T00:34:59;95081.38;;;21.57;73.96
55424;BME280;41294;42.666;23.350;2022-07-22T00:37:25;95091.75;;;21.66;74.70
55424;BME280;41294;42.666;23.350;2022-07-22T00:39:50;95090.81;;;21.64;74.81
55424;BME280;41294;42.666;23.350;2022-07-22T00:42:16;95096.31;;;21.71;74.68
55424;BME280;41294;42.666;23.350;2022-07-22T00:44:41;95096.66;;;21.62;74.59
55424;BME280;41294;42.666;23.350;2022-07-22T00:47:07;95092.75;;;21.40;69.61
55424;BME280;41294;42.666;23.350;2022-07-22T00:49:32;95093.75;;;21.37;72.76
55424;BME280;41294;42.666;23.350;2022-07-22T00:51:58;95091.28;;;21.39;72.79
55424;BME280;41294;42.666;23.350;2022-07-22T00:54:24;95095.53;;;21.29;70.60
55424;BME280;41294;42.666;23.350;2022-07-22T00:56:49;95085.34;;;21.46;70.04
55424;BME280;41294;42.666;23.350;2022-07-22T00:59:15;95083.16;;;21.26;68.86
55424;BME280;41294;42.666;23.350;2022-07-22T01:01:40;95092.00;;;21.15;68.66
55424;BME280;41294;42.666;23.350;2022-07-22T01:04:06;95091.00;;;21.18;68.20
55424;BME280;41294;42.666;23.350;2022-07-22T01:06:32;95091.47;;;21.22;67.84
55424;BME280;41294;42.666;23.350;2022-07-22T01:08:58;95086.97;;;21.36;70.94
55424;BME280;41294;42.666;23.350;2022-07-22T01:11:24;95092.69;;;21.45;72.36
55424;BME280;41294;42.666;23.350;2022-07-22T01:13:50;95086.38;;;21.43;71.64
55424;BME280;41294;42.666;23.350;2022-07-22T01:16:17;95091.75;;;21.43;69.02
55424;BME280;41294;42.666;23.350;2022-07-22T01:18:44;95091.28;;;21.39;70.51
55424;BME280;41294;42.666;23.350;2022-07-22T01:21:10;95095.53;;;21.52;71.11
55424;BME280;41294;42.666;23.350;2022-07-22T01:23:37;95097.75;;;21.49;71.41
55424;BME280;41294;42.666;23.350;2022-07-22T01:26:04;95092.50;;;21.38;72.18
55424;BME280;41294;42.666;23.350;2022-07-22T01:28:30;95090.81;;;21.40;71.98
55424;BME280;41294;42.666;23.350;2022-07-22T01:30:56;95091.28;;;21.39;72.28
55424;BME280;41294;42.666;23.350;2022-07-22T01:33:22;95083.72;;;21.43;72.21
55424;BME280;41294;42.666;23.350;2022-07-22T01:35:48;95086.34;;;21.48;71.54
55424;BME280;41294;42.666;23.350;2022-07-22T01:38:15;95082.91;;;21.48;71.67
55424;BME280;41294;42.666;23.350;2022-07-22T01:40:42;95082.25;;;21.42;71.34
55424;BME280;41294;42.666;23.350;2022-07-22T01:43:08;95079.13;;;21.38;71.24
55424;BME280;41294;42.666;23.350;2022-07-22T01:45:34;95084.69;;;21.40;71.40
55424;BME280;41294;42.666;23.350;2022-07-22T01:47:59;95086.72;;;21.34;71.50
55424;BME280;41294;42.666;23.350;2022-07-22T01:50:25;95095.53;;;21.29;71.55
55424;BME280;41294;42.666;23.350;2022-07-22T01:52:51;95089.50;;;21.23;71.65
55424;BME280;41294;42.666;23.350;2022-07-22T01:55:17;95090.25;;;21.23;71.91
55424;BME280;41294;42.666;23.350;2022-07-22T01:57:43;95085.84;;;21.26;71.49
55424;BME280;41294;42.666;23.350;2022-07-22T02:00:09;95083.63;;;21.24;71.60
55424;BME280;41294;42.666;23.350;2022-07-22T02:02:35;95091.53;;;21.17;71.89
55424;BME280;41294;42.666;23.350;2022-07-22T02:05:02;95088.75;;;20.98;72.75
55424;BME280;41294;42.666;23.350;2022-07-22T02:07:28;95085.22;;;20.85;73.76
55424;BME280;41294;42.666;23.350;2022-07-22T02:09:54;95098.34;;;20.88;74.21
55424;BME280;41294;42.666;23.350;2022-07-22T02:12:19;95097.06;;;20.95;73.79
55424;BME280;41294;42.666;23.350;2022-07-22T02:14:45;95106.50;;;21.01;73.54
55424;BME280;41294;42.666;23.350;2022-07-22T02:17:12;95104.34;;;21.00;73.18
55424;BME280;41294;42.666;23.350;2022-07-22T02:19:38;95106.31;;;20.94;73.22
55424;BME280;41294;42.666;23.350;2022-07-22T02:22:04;95106.88;;;20.87;73.79
55424;BME280;41294;42.666;23.350;2022-07-22T02:24:29;95113.00;;;20.82;74.10
55424;BME280;41294;42.666;23.350;2022-07-22T02:26:55;95116.44;;;20.77;74.61
55424;BME280;41294;42.666;23.350;2022-07-22T02:29:20;95114.97;;;20.76;74.21
55424;BME280;41294;42.666;23.350;2022-07-22T02:31:46;95116.44;;;20.77;74.26
55424;BME280;41294;42.666;23.350;2022-07-22T02:34:11;95113.13;;;20.60;75.08
55424;BME280;41294;42.666;23.350;2022-07-22T02:36:37;95114.66;;;20.50;75.43
55424;BME280;41294;42.666;23.350;2022-07-22T02:39:03;95114.19;;;20.52;75.72
55424;BME280;41294;42.666;23.350;2022-07-22T02:41:29;95113.19;;;20.55;75.78
55424;BME280;41294;42.666;23.350;2022-07-22T02:43:54;95111.03;;;20.48;76.08
55424;BME280;41294;42.666;23.350;2022-07-22T02:46:23;95109.34;;;20.45;76.72
55424;BME280;41294;42.666;23.350;2022-07-22T02:48:49;95106.44;;;20.48;76.44
55424;BME280;41294;42.666;23.350;2022-07-22T02:51:15;95111.03;;;20.48;76.40
55424;BME280;41294;42.666;23.350;2022-07-22T02:53:41;95107.84;;;20.49;76.12
55424;BME280;41294;42.666;23.350;2022-07-22T02:56:06;95102.59;;;20.38;76.83
55424;BME280;41294;42.666;23.350;2022-07-22T02:58:32;95104.91;;;20.18;78.16
55424;BME280;41294;42.666;23.350;2022-07-22T03:00:57;95107.63;;;20.12;78.65
55424;BME280;41294;42.666;23.350;2022-07-22T03:03:23;95108.09;;;20.11;78.72
55424;BME280;41294;42.666;23.350;2022-07-22T03:05:49;95102.50;;;20.14;78.45
55424;BME280;41294;42.666;23.350;2022-07-22T03:08:15;95107.63;;;20.12;78.54
55424;BME280;41294;42.666;23.350;2022-07-22T03:10:40;95110.22;;;20.23;77.97
55424;BME280;41294;42.666;23.350;2022-07-22T03:13:06;95099.31;;;20.21;77.79
55424;BME280;41294;42.666;23.350;2022-07-22T03:15:31;95106.81;;;20.23;77.75
55424;BME280;41294;42.666;23.350;2022-07-22T03:17:57;95101.53;;;20.12;77.84
55424;BME280;41294;42.666;23.350;2022-07-22T03:20:22;95105.72;;;20.02;79.11
55424;BME280;41294;42.666;23.350;2022-07-22T03:22:48;95109.81;;;20.08;79.21
55424;BME280;41294;42.666;23.350;2022-07-22T03:25:13;95110.44;;;20.25;78.44
55424;BME280;41294;42.666;23.350;2022-07-22T03:27:39;95108.25;;;20.29;77.87
55424;BME280;41294;42.666;23.350;2022-07-22T03:30:05;95105.31;;;20.33;77.58
55424;BME280;41294;42.666;23.350;2022-07-22T03:32:31;95108.66;;;20.39;77.29
55424;BME280;41294;42.666;23.350;2022-07-22T03:34:56;95113.06;;;20.36;77.53
55424;BME280;41294;42.666;23.350;2022-07-22T03:37:22;95121.31;;;20.38;77.17
55424;BME280;41294;42.666;23.350;2022-07-22T03:39:47;95112.13;;;20.34;77.54
55424;BME280;41294;42.666;23.350;2022-07-22T03:42:13;95120.81;;;20.40;77.67
55424;BME280;41294;42.666;23.350;2022-07-22T03:44:38;95114.28;;;20.35;77.78
55424;BME280;41294;42.666;23.350;2022-07-22T03:47:04;95123.00;;;20.41;77.97
55424;BME280;41294;42.666;23.350;2022-07-22T03:49:30;95132.66;;;20.55;77.13
55424;BME280;41294;42.666;23.350;2022-07-22T03:51:56;95129.78;;;21.12;75.19
55424;BME280;41294;42.666;23.350;2022-07-22T03:54:21;95129.19;;;22.14;70.92
55424;BME280;41294;42.666;23.350;2022-07-22T03:56:47;95124.78;;;22.85;67.93
55424;BME280;41294;42.666;23.350;2022-07-22T03:59:12;95126.56;;;23.52;65.34
55424;BME280;41294;42.666;23.350;2022-07-22T04:01:37;95141.06;;;23.88;63.87
55424;BME280;41294;42.666;23.350;2022-07-22T04:04:03;95134.56;;;24.30;62.39
55424;BME280;41294;42.666;23.350;2022-07-22T04:06:29;95141.19;;;24.75;60.84
55424;BME280;41294;42.666;23.350;2022-07-22T04:08:54;95130.25;;;25.14;59.51
55424;BME280;41294;42.666;23.350;2022-07-22T04:11:20;95144.00;;;25.51;58.99
55424;BME280;41294;42.666;23.350;2022-07-22T04:13:46;95130.03;;;25.88;56.88
55424;BME280;41294;42.666;23.350;2022-07-22T04:16:11;95134.25;;;26.04;56.84
55424;BME280;41294;42.666;23.350;2022-07-22T04:18:37;95140.59;;;26.14;56.67
55424;BME280;41294;42.666;23.350;2022-07-22T04:21:02;95141.50;;;26.52;55.78
55424;BME280;41294;42.666;23.350;2022-07-22T04:23:28;95140.84;;;26.88;54.99
55424;BME280;41294;42.666;23.350;2022-07-22T04:25:54;95136.91;;;27.19;53.58
55424;BME280;41294;42.666;23.350;2022-07-22T04:28:20;95143.41;;;27.46;53.75
55424;BME280;41294;42.666;23.350;2022-07-22T04:30:45;95144.63;;;27.82;52.79
55424;BME280;41294;42.666;23.350;2022-07-22T04:33:11;95152.75;;;27.82;51.88
55424;BME280;41294;42.666;23.350;2022-07-22T04:35:36;95150.84;;;28.15;51.53
55424;BME280;41294;42.666;23.350;2022-07-22T04:38:01;95159.53;;;28.21;51.21
55424;BME280;41294;42.666;23.350;2022-07-22T04:40:27;95155.22;;;28.10;50.58
55424;BME280;41294;42.666;23.350;2022-07-22T04:42:53;95157.66;;;28.45;51.45
55424;BME280;41294;42.666;23.350;2022-07-22T04:45:18;95151.97;;;28.58;50.94
55424;BME280;41294;42.666;23.350;2022-07-22T04:47:44;95162.69;;;28.88;48.48
55424;BME280;41294;42.666;23.350;2022-07-22T04:50:09;95160.88;;;28.83;48.54
55424;BME280;41294;42.666;23.350;2022-07-22T04:52:35;95164.91;;;28.82;48.53
55424;BME280;41294;42.666;23.350;2022-07-22T04:55:00;95159.88;;;29.03;48.98
55424;BME280;41294;42.666;23.350;2022-07-22T04:57:26;95165.41;;;29.13;47.96
55424;BME280;41294;42.666;23.350;2022-07-22T04:59:52;95170.59;;;29.18;47.77
55424;BME280;41294;42.666;23.350;2022-07-22T05:02:18;95164.84;;;29.14;46.01
55424;BME280;41294;42.666;23.350;2022-07-22T05:04:43;95170.81;;;28.88;47.06
55424;BME280;41294;42.666;23.350;2022-07-22T05:07:09;95175.22;;;28.30;47.39
55424;BME280;41294;42.666;23.350;2022-07-22T05:09:34;95169.47;;;28.26;47.47
55424;BME280;41294;42.666;23.350;2022-07-22T05:12:00;95168.59;;;28.62;47.07
55424;BME280;41294;42.666;23.350;2022-07-22T05:14:25;95171.03;;;28.36;47.15
55424;BME280;41294;42.666;23.350;2022-07-22T05:16:51;95167.22;;;28.86;45.39
55424;BME280;41294;42.666;23.350;2022-07-22T05:19:16;95162.59;;;29.27;44.66
55424;BME280;41294;42.666;23.350;2022-07-22T05:21:42;95159.75;;;29.67;44.31
55424;BME280;41294;42.666;23.350;2022-07-22T05:24:07;95161.94;;;30.02;44.36
55424;BME280;41294;42.666;23.350;2022-07-22T05:26:33;95162.66;;;29.86;46.41
55424;BME280;41294;42.666;23.350;2022-07-22T05:28:59;95167.75;;;30.32;44.92
55424;BME280;41294;42.666;23.350;2022-07-22T05:31:24;95173.69;;;30.38;46.23
55424;BME280;41294;42.666;23.350;2022-07-22T05:33:50;95168.91;;;30.29;44.86
55424;BME280;41294;42.666;23.350;2022-07-22T05:36:15;95171.88;;;30.67;44.64
55424;BME280;41294;42.666;23.350;2022-07-22T05:38:41;95172.47;;;30.92;44.24
55424;BME280;41294;42.666;23.350;2022-07-22T05:41:06;95181.50;;;31.21;44.55
55424;BME280;41294;42.666;23.350;2022-07-22T05:43:32;95172.78;;;31.58;41.96
55424;BME280;41294;42.666;23.350;2022-07-22T05:45:57;95158.50;;;31.41;41.84
55424;BME280;41294;42.666;23.350;2022-07-22T05:48:23;95163.19;;;31.31;45.45
55424;BME280;41294;42.666;23.350;2022-07-22T05:50:48;95163.34;;;31.69;40.51
55424;BME280;41294;42.666;23.350;2022-07-22T05:53:14;95160.47;;;31.67;41.85
55424;BME280;41294;42.666;23.350;2022-07-22T05:55:39;95167.97;;;31.94;41.95
55424;BME280;41294;42.666;23.350;2022-07-22T05:58:05;95159.31;;;31.24;40.68
55424;BME280;41294;42.666;23.350;2022-07-22T06:00:30;95168.88;;;30.90;43.48
55424;BME280;41294;42.666;23.350;2022-07-22T06:02:56;95165.72;;;31.10;41.77
55424;BME280;41294;42.666;23.350;2022-07-22T06:05:21;95166.94;;;31.99;45.24
55424;BME280;41294;42.666;23.350;2022-07-22T06:07:47;95167.56;;;32.45;40.16
55424;BME280;41294;42.666;23.350;2022-07-22T06:10:13;95167.41;;;32.62;39.98
55424;BME280;41294;42.666;23.350;2022-07-22T06:12:39;95165.69;;;32.57;40.96
55424;BME280;41294;42.666;23.350;2022-07-22T06:15:04;95169.88;;;32.11;40.35
55424;BME280;41294;42.666;23.350;2022-07-22T06:17:30;95162.69;;;32.25;41.67
55424;BME280;41294;42.666;23.350;2022-07-22T06:19:56;95163.91;;;32.99;40.07
55424;BME280;41294;42.666;23.350;2022-07-22T06:22:21;95167.69;;;32.75;40.68
55424;BME280;41294;42.666;23.350;2022-07-22T06:24:47;95172.75;;;33.19;38.87
55424;BME280;41294;42.666;23.350;2022-07-22T06:27:12;95167.69;;;33.64;39.47
55424;BME280;41294;42.666;23.350;2022-07-22T06:29:38;95168.72;;;33.80;40.40
55424;BME280;41294;42.666;23.350;2022-07-22T06:32:04;95166.78;;;33.71;38.25
55424;BME280;41294;42.666;23.350;2022-07-22T06:34:29;95168.91;;;33.43;39.74
55424;BME280;41294;42.666;23.350;2022-07-22T06:36:55;95171.59;;;33.82;38.83
55424;BME280;41294;42.666;23.350;2022-07-22T06:39:20;95160.84;;;33.75;38.06
55424;BME280;41294;42.666;23.350;2022-07-22T06:41:46;95165.34;;;33.70;37.12
55424;BME280;41294;42.666;23.350;2022-07-22T06:44:12;95165.63;;;33.35;37.81
55424;BME280;41294;42.666;23.350;2022-07-22T06:46:37;95166.81;;;32.73;39.55
55424;BME280;41294;42.666;23.350;2022-07-22T06:49:03;95162.81;;;33.53;39.47
55424;BME280;41294;42.666;23.350;2022-07-22T06:51:28;95161.25;;;33.60;37.95
55424;BME280;41294;42.666;23.350;2022-07-22T06:53:54;95163.53;;;34.26;37.64
55424;BME280;41294;42.666;23.350;2022-07-22T06:56:19;95153.28;;;35.03;38.76
55424;BME280;41294;42.666;23.350;2022-07-22T06:58:45;95156.84;;;34.94;35.76
55424;BME280;41294;42.666;23.350;2022-07-22T07:01:10;95158.50;;;34.87;35.15
55424;BME280;41294;42.666;23.350;2022-07-22T07:03:36;95160.41;;;34.85;35.79
55424;BME280;41294;42.666;23.350;2022-07-22T07:06:03;95162.38;;;35.39;34.14
55424;BME280;41294;42.666;23.350;2022-07-22T07:08:28;95159.06;;;35.29;37.14
55424;BME280;41294;42.666;23.350;2022-07-22T07:10:54;95163.19;;;35.76;34.50
55424;BME280;41294;42.666;23.350;2022-07-22T07:13:19;95162.25;;;35.83;34.87
55424;BME280;41294;42.666;23.350;2022-07-22T07:15:44;95158.53;;;36.02;33.74
55424;BME280;41294;42.666;23.350;2022-07-22T07:18:10;95168.16;;;36.39;33.26
55424;BME280;41294;42.666;23.350;2022-07-22T07:20:36;95160.69;;;35.80;33.74
55424;BME280;41294;42.666;23.350;2022-07-22T07:23:02;95151.16;;;35.81;33.59
55424;BME280;41294;42.666;23.350;2022-07-22T07:25:28;95157.34;;;36.05;32.59
55424;BME280;41294;42.666;23.350;2022-07-22T07:27:54;95159.75;;;35.76;32.88
55424;BME280;41294;42.666;23.350;2022-07-22T07:30:20;95163.00;;;36.20;34.02
55424;BME280;41294;42.666;23.350;2022-07-22T07:32:45;95161.75;;;36.46;31.61
55424;BME280;41294;42.666;23.350;2022-07-22T07:35:11;95156.78;;;36.81;31.00
55424;BME280;41294;42.666;23.350;2022-07-22T07:37:37;95158.28;;;36.45;31.64
55424;BME280;41294;42.666;23.350;2022-07-22T07:40:03;95151.84;;;36.91;31.77
55424;BME280;41294;42.666;23.350;2022-07-22T07:42:29;95151.44;;;36.96;31.49
55424;BME280;41294;42.666;23.350;2022-07-22T07:44:54;95158.19;;;36.82;31.78
55424;BME280;41294;42.666;23.350;2022-07-22T07:47:21;95154.88;;;36.58;31.15
55424;BME280;41294;42.666;23.350;2022-07-22T07:49:47;95154.38;;;36.62;31.03
55424;BME280;41294;42.666;23.350;2022-07-22T07:52:13;95150.84;;;36.73;31.30
55424;BME280;41294;42.666;23.350;2022-07-22T07:54:40;95154.78;;;36.56;30.51
55424;BME280;41294;42.666;23.350;2022-07-22T07:57:09;95160.44;;;37.10;30.64
55424;BME280;41294;42.666;23.350;2022-07-22T07:59:36;95157.03;;;37.36;30.03
55424;BME280;41294;42.666;23.350;2022-07-22T08:02:02;95157.03;;;37.50;29.75
55424;BME280;41294;42.666;23.350;2022-07-22T08:04:28;95158.56;;;37.66;30.53
55424;BME280;41294;42.666;23.350;2022-07-22T08:06:53;95161.44;;;37.68;30.07
55424;BME280;41294;42.666;23.350;2022-07-22T08:09:19;95142.28;;;37.43;30.27
55424;BME280;41294;42.666;23.350;2022-07-22T08:11:44;95150.09;;;37.62;29.10
55424;BME280;41294;42.666;23.350;2022-07-22T08:14:10;95154.19;;;37.48;30.04
55424;BME280;41294;42.666;23.350;2022-07-22T08:16:36;95151.50;;;37.23;30.68
55424;BME280;41294;42.666;23.350;2022-07-22T08:19:01;95157.16;;;37.65;30.39
55424;BME280;41294;42.666;23.350;2022-07-22T08:21:27;95153.19;;;37.55;29.57
55424;BME280;41294;42.666;23.350;2022-07-22T08:23:52;95152.78;;;37.60;29.35
55424;BME280;41294;42.666;23.350;2022-07-22T08:26:18;95156.22;;;37.74;29.19
55424;BME280;41294;42.666;23.350;2022-07-22T08:28:44;95159.50;;;37.71;28.76
55424;BME280;41294;42.666;23.350;2022-07-22T08:31:09;95154.47;;;38.21;28.01
55424;BME280;41294;42.666;23.350;2022-07-22T08:33:35;95156.31;;;38.03;26.81
55424;BME280;41294;42.666;23.350;2022-07-22T08:36:00;95150.75;;;36.96;27.79
55424;BME280;41294;42.666;23.350;2022-07-22T08:38:26;95154.09;;;37.32;28.55
55424;BME280;41294;42.666;23.350;2022-07-22T08:40:55;95157.84;;;37.66;28.49
55424;BME280;41294;42.666;23.350;2022-07-22T08:43:21;95159.50;;;37.57;27.41
55424;BME280;41294;42.666;23.350;2022-07-22T08:45:47;95146.47;;;37.06;27.80
55424;BME280;41294;42.666;23.350;2022-07-22T08:48:13;95141.69;;;36.07;28.70
55424;BME280;41294;42.666;23.350;2022-07-22T08:50:39;95155.84;;;35.10;30.62
55424;BME280;41294;42.666;23.350;2022-07-22T08:53:08;95153.44;;;36.57;29.40
55424;BME280;41294;42.666;23.350;2022-07-22T08:55:40;95150.09;;;37.35;27.86
55424;BME280;41294;42.666;23.350;2022-07-22T08:58:06;95145.19;;;36.82;27.91
55424;BME280;41294;42.666;23.350;2022-07-22T09:00:31;95154.34;;;36.48;29.43
55424;BME280;41294;42.666;23.350;2022-07-22T09:02:57;95159.84;;;36.37;29.21
55424;BME280;41294;42.666;23.350;2022-07-22T09:05:22;95150.31;;;36.88;29.08
55424;BME280;41294;42.666;23.350;2022-07-22T09:07:47;95152.41;;;37.27;27.95
55424;BME280;41294;42.666;23.350;2022-07-22T09:10:17;95151.38;;;37.07;28.99
55424;BME280;41294;42.666;23.350;2022-07-22T09:12:54;95155.56;;;36.34;28.66
55424;BME280;41294;42.666;23.350;2022-07-22T09:15:33;95153.06;;;35.67;30.13
55424;BME280;41294;42.666;23.350;2022-07-22T09:18:01;95159.66;;;35.39;30.38
55424;BME280;41294;42.666;23.350;2022-07-22T09:20:27;95157.91;;;36.15;31.41
55424;BME280;41294;42.666;23.350;2022-07-22T09:22:53;95152.72;;;35.84;29.53
55424;BME280;41294;42.666;23.350;2022-07-22T09:25:33;95155.00;;;33.90;32.15
55424;BME280;41294;42.666;23.350;2022-07-22T09:30:36;95151.59;;;33.29;31.74
55424;BME280;41294;42.666;23.350;2022-07-22T09:33:03;95145.59;;;34.67;31.74
55424;BME280;41294;42.666;23.350;2022-07-22T09:35:29;95143.94;;;35.51;29.83
55424;BME280;41294;42.666;23.350;2022-07-22T09:38:03;95142.72;;;36.75;28.06
55424;BME280;41294;42.666;23.350;2022-07-22T09:40:31;95140.63;;;36.87;28.19
55424;BME280;41294;42.666;23.350;2022-07-22T09:43:02;95154.22;;;37.09;28.51
55424;BME280;41294;42.666;23.350;2022-07-22T09:45:30;95152.72;;;37.20;28.30
55424;BME280;41294;42.666;23.350;2022-07-22T09:47:57;95148.69;;;37.34;28.26
55424;BME280;41294;42.666;23.350;2022-07-22T09:50:29;95153.06;;;37.39;28.11
55424;BME280;41294;42.666;23.350;2022-07-22T09:52:57;95138.38;;;37.21;26.71
55424;BME280;41294;42.666;23.350;2022-07-22T09:55:24;95127.88;;;36.30;28.28
55424;BME280;41294;42.666;23.350;2022-07-22T09:57:51;95129.00;;;35.66;29.15
55424;BME280;41294;42.666;23.350;2022-07-22T10:00:24;95132.53;;;34.77;29.83
55424;BME280;41294;42.666;23.350;2022-07-22T10:02:55;95125.94;;;35.14;30.36
55424;BME280;41294;42.666;23.350;2022-07-22T10:05:26;95126.19;;;36.12;29.29
55424;BME280;41294;42.666;23.350;2022-07-22T10:07:53;95140.94;;;33.63;31.57
55424;BME280;41294;42.666;23.350;2022-07-22T10:10:22;95123.03;;;34.13;31.66
55424;BME280;41294;42.666;23.350;2022-07-22T10:12:49;95123.41;;;33.56;31.64
55424;BME280;41294;42.666;23.350;2022-07-22T10:15:15;95134.19;;;32.94;32.17
55424;BME280;41294;42.666;23.350;2022-07-22T10:17:49;95110.53;;;33.48;32.85
55424;BME280;41294;42.666;23.350;2022-07-22T10:20:21;95117.53;;;33.60;31.56
55424;BME280;41294;42.666;23.350;2022-07-22T10:22:49;95120.78;;;32.98;33.52
55424;BME280;41294;42.666;23.350;2022-07-22T10:25:16;95120.91;;;33.09;33.01
55424;BME280;41294;42.666;23.350;2022-07-22T10:30:19;95103.47;;;32.84;33.94
55424;BME280;41294;42.666;23.350;2022-07-22T10:32:45;95106.25;;;34.07;32.89
55424;BME280;41294;42.666;23.350;2022-07-22T10:37:37;95111.91;;;34.21;31.92
55424;BME280;41294;42.666;23.350;2022-07-22T10:45:34;95108.59;;;36.28;29.97
55424;BME280;41294;42.666;23.350;2022-07-22T10:48:03;95103.66;;;36.63;28.70
55424;BME280;41294;42.666;23.350;2022-07-22T10:53:18;95111.78;;;36.36;29.04
55424;BME280;41294;42.666;23.350;2022-07-22T10:56:13;95111.13;;;36.49;28.84
55424;BME280;41294;42.666;23.350;2022-07-22T11:01:09;95103.41;;;36.09;28.73
55424;BME280;41294;42.666;23.350;2022-07-22T11:03:36;95110.31;;;36.46;29.08
55424;BME280;41294;42.666;23.350;2022-07-22T11:06:22;95108.47;;;36.01;28.87
55424;BME280;41294;42.666;23.350;2022-07-22T11:08:54;95102.81;;;35.51;29.40
55424;BME280;41294;42.666;23.350;2022-07-22T11:11:35;95104.28;;;36.25;29.19
55424;BME280;41294;42.666;23.350;2022-07-22T11:14:00;95102.88;;;36.49;28.89
55424;BME280;41294;42.666;23.350;2022-07-22T11:16:27;95102.53;;;36.68;28.11
55424;BME280;41294;42.666;23.350;2022-07-22T11:19:01;95111.50;;;36.82;28.42
55424;BME280;41294;42.666;23.350;2022-07-22T11:21:32;95092.13;;;34.11;30.27
55424;BME280;41294;42.666;23.350;2022-07-22T11:24:00;95098.41;;;33.51;31.21
55424;BME280;41294;42.666;23.350;2022-07-22T11:29:07;95086.16;;;33.61;30.78
55424;BME280;41294;42.666;23.350;2022-07-22T11:31:33;95103.63;;;33.47;31.79
55424;BME280;41294;42.666;23.350;2022-07-22T11:34:11;95099.06;;;33.09;32.29
55424;BME280;41294;42.666;23.350;2022-07-22T11:36:39;95097.91;;;33.12;32.75
55424;BME280;41294;42.666;23.350;2022-07-22T11:39:05;95078.44;;;33.90;32.28
55424;BME280;41294;42.666;23.350;2022-07-22T11:41:32;95086.66;;;34.43;31.38
55424;BME280;41294;42.666;23.350;2022-07-22T11:43:58;95080.41;;;34.31;31.35
55424;BME280;41294;42.666;23.350;2022-07-22T11:46:25;95079.81;;;34.65;31.23
55424;BME280;41294;42.666;23.350;2022-07-22T11:48:52;95085.28;;;34.65;30.79
55424;BME280;41294;42.666;23.350;2022-07-22T11:51:18;95085.06;;;34.84;29.59
55424;BME280;41294;42.666;23.350;2022-07-22T11:53:43;95088.38;;;34.71;30.77
55424;BME280;41294;42.666;23.350;2022-07-22T11:56:11;95084.38;;;35.06;29.58
55424;BME280;41294;42.666;23.350;2022-07-22T11:58:41;95071.72;;;34.67;29.97
55424;BME280;41294;42.666;23.350;2022-07-22T12:01:16;95083.66;;;34.50;29.72
55424;BME280;41294;42.666;23.350;2022-07-22T12:03:46;95074.31;;;34.65;30.24
55424;BME280;41294;42.666;23.350;2022-07-22T12:06:14;95072.56;;;34.92;30.44
55424;BME280;41294;42.666;23.350;2022-07-22T12:08:52;95078.13;;;34.16;30.82
55424;BME280;41294;42.666;23.350;2022-07-22T12:11:20;95078.13;;;33.74;31.78
55424;BME280;41294;42.666;23.350;2022-07-22T12:13:48;95074.00;;;33.73;31.78
55424;BME280;41294;42.666;23.350;2022-07-22T12:16:28;95065.19;;;33.96;31.38
55424;BME280;41294;42.666;23.350;2022-07-22T12:19:00;95070.53;;;33.94;31.71
55424;BME280;41294;42.666;23.350;2022-07-22T12:21:27;95070.47;;;33.61;32.39
55424;BME280;41294;42.666;23.350;2022-07-22T12:24:05;95064.31;;;34.14;31.70
55424;BME280;41294;42.666;23.350;2022-07-22T12:26:45;95064.94;;;34.56;30.63
55424;BME280;41294;42.666;23.350;2022-07-22T12:29:24;95064.22;;;35.02;29.73
55424;BME280;41294;42.666;23.350;2022-07-22T12:31:56;95058.75;;;35.25;30.71
55424;BME280;41294;42.666;23.350;2022-07-22T12:37:18;95061.84;;;35.19;29.58
55424;BME280;41294;42.666;23.350;2022-07-22T12:42:34;95052.59;;;34.02;31.39
55424;BME280;41294;42.666;23.350;2022-07-22T12:45:01;95055.22;;;34.00;31.42
55424;BME280;41294;42.666;23.350;2022-07-22T12:48:00;95061.91;;;34.52;31.37
55424;BME280;41294;42.666;23.350;2022-07-22T12:55:28;95046.78;;;33.75;29.64
55424;BME280;41294;42.666;23.350;2022-07-22T12:57:54;95046.88;;;33.98;30.76
55424;BME280;41294;42.666;23.350;2022-07-22T13:00:25;95042.84;;;33.99;29.90
55424;BME280;41294;42.666;23.350;2022-07-22T13:02:52;95053.59;;;34.07;28.99
55424;BME280;41294;42.666;23.350;2022-07-22T13:05:17;95043.00;;;33.80;30.44
55424;BME280;41294;42.666;23.350;2022-07-22T13:07:43;95050.16;;;33.85;30.00
55424;BME280;41294;42.666;23.350;2022-07-22T13:10:10;95052.56;;;34.23;29.98
55424;BME280;41294;42.666;23.350;2022-07-22T13:12:36;95046.56;;;34.04;28.53
55424;BME280;41294;42.666;23.350;2022-07-22T13:15:01;95049.47;;;34.17;29.47
55424;BME280;41294;42.666;23.350;2022-07-22T13:17:28;95052.84;;;34.06;29.04
55424;BME280;41294;42.666;23.350;2022-07-22T13:19:54;95067.94;;;33.75;30.03